sensor_id;sensor_type;location;lat;lon;timestamp;P1;durP1;ratioP1;P2;durP2;ratioP2
17959;SDS011;9105;53.552;9.980;2023-07-22T00:01:47;11.93;;;9.05;;
17959;SDS011;9105;53.552;9.980;2023-07-22T00:04:14;13.63;;;9.50;;
17959;SDS011;9105;53.552;9.980;2023-07-22T00:06:39;13.40;;;9.65;;
17959;SDS011;9105;53.552;9.980;2023-07-22T00:09:05;17.30;;;10.93;;
17959;SDS011;9105;53.552;9.980;2023-07-22T00:11:31;17.02;;;10.32;;
17959;SDS011;9105;53.552;9.980;2023-07-22T00:13:57;13.80;;;9.35;;
17959;SDS011;9105;53.552;9.980;2023-07-22T00:16:22;13.68;;;8.88;;
17959;SDS011;9105;53.552;9.980;2023-07-22T00:18:48;14.02;;;10.52;;
17959;SDS011;9105;53.552;9.980;2023-07-22T00:21:14;14.02;;;10.57;;
17959;SDS011;9105;53.552;9.980;2023-07-22T00:23:40;12.70;;;9.73;;
17959;SDS011;9105;53.552;9.980;2023-07-22T00:26:05;15.85;;;10.70;;
17959;SDS011;9105;53.552;9.980;2023-07-22T00:28:30;16.63;;;10.93;;
17959;SDS011;9105;53.552;9.980;2023-07-22T00:30:56;16.63;;;9.98;;
17959;SDS011;9105;53.552;9.980;2023-07-22T00:33:22;12.68;;;9.10;;
17959;SDS011;9105;53.552;9.980;2023-07-22T00:35:48;17.25;;;11.00;;
17959;SDS011;9105;53.552;9.980;2023-07-22T00:38:17;12.45;;;9.35;;
17959;SDS011;9105;53.552;9.980;2023-07-22T00:40:44;16.50;;;10.38;;
17959;SDS011;9105;53.552;9.980;2023-07-22T00:43:10;13.93;;;9.63;;
17959;SDS011;9105;53.552;9.980;2023-07-22T00:45:36;15.35;;;10.98;;
17959;SDS011;9105;53.552;9.980;2023-07-22T00:48:01;16.67;;;11.07;;
17959;SDS011;9105;53.552;9.980;2023-07-22T00:50:28;18.45;;;11.70;;
17959;SDS011;9105;53.552;9.980;2023-07-22T00:52:53;21.90;;;10.30;;
17959;SDS011;9105;53.552;9.980;2023-07-22T00:55:19;15.43;;;9.52;;
17959;SDS011;9105;53.552;9.980;2023-07-22T00:57:44;16.75;;;11.43;;
17959;SDS011;9105;53.552;9.980;2023-07-22T01:00:10;16.30;;;10.65;;
17959;SDS011;9105;53.552;9.980;2023-07-22T01:02:37;15.50;;;11.07;;
17959;SDS011;9105;53.552;9.980;2023-07-22T01:05:04;17.20;;;11.25;;
17959;SDS011;9105;53.552;9.980;2023-07-22T01:07:30;17.98;;;12.15;;
17959;SDS011;9105;53.552;9.980;2023-07-22T01:09:56;19.10;;;11.73;;
17959;SDS011;9105;53.552;9.980;2023-07-22T01:12:24;18.45;;;11.75;;
17959;SDS011;9105;53.552;9.980;2023-07-22T01:14:50;17.40;;;11.55;;
17959;SDS011;9105;53.552;9.980;2023-07-22T01:17:15;20.58;;;12.25;;
17959;SDS011;9105;53.552;9.980;2023-07-22T01:19:41;17.52;;;12.20;;
17959;SDS011;9105;53.552;9.980;2023-07-22T01:22:07;17.27;;;11.40;;
17959;SDS011;9105;53.552;9.980;2023-07-22T01:24:36;14.98;;;10.50;;
17959;SDS011;9105;53.552;9.980;2023-07-22T01:27:03;15.82;;;10.50;;
17959;SDS011;9105;53.552;9.980;2023-07-22T01:29:29;18.55;;;12.10;;
17959;SDS011;9105;53.552;9.980;2023-07-22T01:31:55;23.20;;;11.60;;
17959;SDS011;9105;53.552;9.980;2023-07-22T01:34:21;18.65;;;11.25;;
17959;SDS011;9105;53.552;9.980;2023-07-22T01:36:47;17.65;;;11.82;;
17959;SDS011;9105;53.552;9.980;2023-07-22T01:39:16;20.25;;;11.63;;
17959;SDS011;9105;53.552;9.980;2023-07-22T01:41:43;17.85;;;11.27;;
17959;SDS011;9105;53.552;9.980;2023-07-22T01:44:09;17.05;;;11.20;;
17959;SDS011;9105;53.552;9.980;2023-07-22T01:46:34;18.63;;;11.32;;
17959;SDS011;9105;53.552;9.980;2023-07-22T01:49:01;19.55;;;12.05;;
17959;SDS011;9105;53.552;9.980;2023-07-22T01:51:27;21.35;;;11.95;;
17959;SDS011;9105;53.552;9.980;2023-07-22T01:53:52;17.67;;;11.40;;
17959;SDS011;9105;53.552;9.980;2023-07-22T01:56:18;17.63;;;11.25;;
17959;SDS011;9105;53.552;9.980;2023-07-22T01:58:45;17.33;;;11.00;;
17959;SDS011;9105;53.552;9.980;2023-07-22T02:01:11;19.67;;;11.98;;
17959;SDS011;9105;53.552;9.980;2023-07-22T02:03:39;18.45;;;11.07;;
17959;SDS011;9105;53.552;9.980;2023-07-22T02:06:05;18.85;;;10.63;;
17959;SDS011;9105;53.552;9.980;2023-07-22T02:08:30;18.10;;;10.63;;
17959;SDS011;9105;53.552;9.980;2023-07-22T02:11:02;18.83;;;11.30;;
17959;SDS011;9105;53.552;9.980;2023-07-22T02:13:29;21.00;;;10.63;;
17959;SDS011;9105;53.552;9.980;2023-07-22T02:15:58;20.63;;;11.68;;
17959;SDS011;9105;53.552;9.980;2023-07-22T02:18:24;18.58;;;10.68;;
17959;SDS011;9105;53.552;9.980;2023-07-22T02:20:49;17.25;;;10.93;;
17959;SDS011;9105;53.552;9.980;2023-07-22T02:23:15;17.75;;;10.98;;
17959;SDS011;9105;53.552;9.980;2023-07-22T02:25:40;19.25;;;10.68;;
17959;SDS011;9105;53.552;9.980;2023-07-22T02:28:06;21.02;;;10.80;;
17959;SDS011;9105;53.552;9.980;2023-07-22T02:30:34;20.27;;;11.00;;
17959;SDS011;9105;53.552;9.980;2023-07-22T02:33:01;20.85;;;10.40;;
17959;SDS011;9105;53.552;9.980;2023-07-22T02:35:27;19.15;;;11.10;;
17959;SDS011;9105;53.552;9.980;2023-07-22T02:37:53;20.50;;;11.32;;
17959;SDS011;9105;53.552;9.980;2023-07-22T02:40:18;18.58;;;10.00;;
17959;SDS011;9105;53.552;9.980;2023-07-22T02:42:43;19.40;;;11.05;;
17959;SDS011;9105;53.552;9.980;2023-07-22T02:45:09;17.33;;;10.95;;
17959;SDS011;9105;53.552;9.980;2023-07-22T02:47:35;16.05;;;9.63;;
17959;SDS011;9105;53.552;9.980;2023-07-22T02:50:01;24.17;;;11.65;;
17959;SDS011;9105;53.552;9.980;2023-07-22T02:52:27;18.15;;;10.43;;
17959;SDS011;9105;53.552;9.980;2023-07-22T02:55:05;21.08;;;10.93;;
17959;SDS011;9105;53.552;9.980;2023-07-22T02:57:44;21.52;;;11.20;;
17959;SDS011;9105;53.552;9.980;2023-07-22T03:00:11;22.08;;;11.77;;
17959;SDS011;9105;53.552;9.980;2023-07-22T03:02:37;25.33;;;12.82;;
17959;SDS011;9105;53.552;9.980;2023-07-22T03:05:04;18.52;;;10.85;;
17959;SDS011;9105;53.552;9.980;2023-07-22T03:09:58;19.45;;;10.55;;
17959;SDS011;9105;53.552;9.980;2023-07-22T03:12:24;19.27;;;11.15;;
17959;SDS011;9105;53.552;9.980;2023-07-22T03:14:49;19.17;;;11.48;;
17959;SDS011;9105;53.552;9.980;2023-07-22T03:17:17;21.23;;;11.68;;
17959;SDS011;9105;53.552;9.980;2023-07-22T03:19:43;22.90;;;11.90;;
17959;SDS011;9105;53.552;9.980;2023-07-22T03:22:08;17.38;;;10.77;;
17959;SDS011;9105;53.552;9.980;2023-07-22T03:24:35;21.73;;;11.45;;
17959;SDS011;9105;53.552;9.980;2023-07-22T03:27:00;19.42;;;10.95;;
17959;SDS011;9105;53.552;9.980;2023-07-22T03:29:26;21.35;;;11.85;;
17959;SDS011;9105;53.552;9.980;2023-07-22T03:31:52;22.02;;;10.57;;
17959;SDS011;9105;53.552;9.980;2023-07-22T03:34:18;18.42;;;11.15;;
17959;SDS011;9105;53.552;9.980;2023-07-22T03:36:43;18.67;;;10.35;;
17959;SDS011;9105;53.552;9.980;2023-07-22T03:39:09;21.13;;;11.68;;
17959;SDS011;9105;53.552;9.980;2023-07-22T03:41:34;19.60;;;11.23;;
17959;SDS011;9105;53.552;9.980;2023-07-22T03:43:59;21.27;;;11.57;;
17959;SDS011;9105;53.552;9.980;2023-07-22T03:46:25;18.60;;;10.60;;
17959;SDS011;9105;53.552;9.980;2023-07-22T03:48:50;18.90;;;10.85;;
17959;SDS011;9105;53.552;9.980;2023-07-22T03:51:16;18.70;;;9.93;;
17959;SDS011;9105;53.552;9.980;2023-07-22T03:53:42;19.48;;;10.93;;
17959;SDS011;9105;53.552;9.980;2023-07-22T03:56:07;22.40;;;11.02;;
17959;SDS011;9105;53.552;9.980;2023-07-22T03:58:33;16.58;;;10.70;;
17959;SDS011;9105;53.552;9.980;2023-07-22T04:00:58;15.02;;;9.02;;
17959;SDS011;9105;53.552;9.980;2023-07-22T04:03:24;17.75;;;10.25;;
17959;SDS011;9105;53.552;9.980;2023-07-22T04:05:55;16.30;;;10.02;;
17959;SDS011;9105;53.552;9.980;2023-07-22T04:08:21;17.67;;;10.68;;
17959;SDS011;9105;53.552;9.980;2023-07-22T04:10:56;15.88;;;10.48;;
17959;SDS011;9105;53.552;9.980;2023-07-22T04:13:22;15.63;;;9.77;;
17959;SDS011;9105;53.552;9.980;2023-07-22T04:15:49;17.45;;;10.57;;
17959;SDS011;9105;53.552;9.980;2023-07-22T04:18:15;17.60;;;9.73;;
17959;SDS011;9105;53.552;9.980;2023-07-22T04:20:41;18.75;;;9.55;;
17959;SDS011;9105;53.552;9.980;2023-07-22T04:23:07;14.05;;;9.90;;
17959;SDS011;9105;53.552;9.980;2023-07-22T04:25:32;16.08;;;10.15;;
17959;SDS011;9105;53.552;9.980;2023-07-22T04:27:57;18.25;;;9.02;;
17959;SDS011;9105;53.552;9.980;2023-07-22T04:30:23;12.63;;;8.50;;
17959;SDS011;9105;53.552;9.980;2023-07-22T04:32:49;17.95;;;8.98;;
17959;SDS011;9105;53.552;9.980;2023-07-22T04:35:18;13.15;;;8.25;;
17959;SDS011;9105;53.552;9.980;2023-07-22T04:37:44;15.40;;;9.13;;
17959;SDS011;9105;53.552;9.980;2023-07-22T04:40:13;13.82;;;8.82;;
17959;SDS011;9105;53.552;9.980;2023-07-22T04:42:43;11.68;;;8.02;;
17959;SDS011;9105;53.552;9.980;2023-07-22T04:45:09;10.45;;;7.53;;
17959;SDS011;9105;53.552;9.980;2023-07-22T04:47:39;13.05;;;7.60;;
17959;SDS011;9105;53.552;9.980;2023-07-22T04:50:05;10.80;;;7.40;;
17959;SDS011;9105;53.552;9.980;2023-07-22T04:52:34;15.82;;;7.85;;
17959;SDS011;9105;53.552;9.980;2023-07-22T04:55:01;13.75;;;8.57;;
17959;SDS011;9105;53.552;9.980;2023-07-22T04:57:33;10.45;;;7.40;;
17959;SDS011;9105;53.552;9.980;2023-07-22T04:59:59;12.07;;;7.97;;
17959;SDS011;9105;53.552;9.980;2023-07-22T05:02:24;11.73;;;8.25;;
17959;SDS011;9105;53.552;9.980;2023-07-22T05:04:50;11.70;;;8.00;;
17959;SDS011;9105;53.552;9.980;2023-07-22T05:07:15;15.07;;;8.20;;
17959;SDS011;9105;53.552;9.980;2023-07-22T05:09:41;12.70;;;8.32;;
17959;SDS011;9105;53.552;9.980;2023-07-22T05:12:06;10.40;;;7.60;;
17959;SDS011;9105;53.552;9.980;2023-07-22T05:14:32;11.98;;;7.70;;
17959;SDS011;9105;53.552;9.980;2023-07-22T05:16:57;11.43;;;7.53;;
17959;SDS011;9105;53.552;9.980;2023-07-22T05:19:22;10.68;;;7.22;;
17959;SDS011;9105;53.552;9.980;2023-07-22T05:21:48;10.73;;;8.15;;
17959;SDS011;9105;53.552;9.980;2023-07-22T05:24:13;12.15;;;7.63;;
17959;SDS011;9105;53.552;9.980;2023-07-22T05:26:39;13.25;;;7.97;;
17959;SDS011;9105;53.552;9.980;2023-07-22T05:29:04;14.35;;;7.65;;
17959;SDS011;9105;53.552;9.980;2023-07-22T05:31:30;9.30;;;6.90;;
17959;SDS011;9105;53.552;9.980;2023-07-22T05:33:56;10.05;;;7.35;;
17959;SDS011;9105;53.552;9.980;2023-07-22T05:36:21;11.65;;;6.20;;
17959;SDS011;9105;53.552;9.980;2023-07-22T05:38:47;11.75;;;6.60;;
17959;SDS011;9105;53.552;9.980;2023-07-22T05:41:12;9.90;;;6.35;;
17959;SDS011;9105;53.552;9.980;2023-07-22T05:43:37;10.77;;;6.30;;
17959;SDS011;9105;53.552;9.980;2023-07-22T05:46:03;9.90;;;5.90;;
17959;SDS011;9105;53.552;9.980;2023-07-22T05:48:28;9.45;;;5.65;;
17959;SDS011;9105;53.552;9.980;2023-07-22T05:50:54;9.75;;;5.57;;
17959;SDS011;9105;53.552;9.980;2023-07-22T05:53:19;8.45;;;5.03;;
17959;SDS011;9105;53.552;9.980;2023-07-22T05:55:45;8.27;;;5.93;;
17959;SDS011;9105;53.552;9.980;2023-07-22T05:58:17;9.55;;;5.75;;
17959;SDS011;9105;53.552;9.980;2023-07-22T06:00:43;8.02;;;5.20;;
17959;SDS011;9105;53.552;9.980;2023-07-22T06:03:08;7.93;;;4.88;;
17959;SDS011;9105;53.552;9.980;2023-07-22T06:05:34;7.35;;;4.90;;
17959;SDS011;9105;53.552;9.980;2023-07-22T06:07:59;7.47;;;5.43;;
17959;SDS011;9105;53.552;9.980;2023-07-22T06:10:25;7.60;;;5.13;;
17959;SDS011;9105;53.552;9.980;2023-07-22T06:12:50;7.55;;;5.07;;
17959;SDS011;9105;53.552;9.980;2023-07-22T06:15:16;8.30;;;5.20;;
17959;SDS011;9105;53.552;9.980;2023-07-22T06:17:41;8.38;;;5.28;;
17959;SDS011;9105;53.552;9.980;2023-07-22T06:20:07;7.03;;;5.53;;
17959;SDS011;9105;53.552;9.980;2023-07-22T06:22:34;9.63;;;5.30;;
17959;SDS011;9105;53.552;9.980;2023-07-22T06:24:59;10.35;;;4.75;;
17959;SDS011;9105;53.552;9.980;2023-07-22T06:27:24;7.38;;;4.70;;
17959;SDS011;9105;53.552;9.980;2023-07-22T06:29:50;6.88;;;4.68;;
17959;SDS011;9105;53.552;9.980;2023-07-22T06:32:15;9.95;;;4.40;;
17959;SDS011;9105;53.552;9.980;2023-07-22T06:34:41;8.48;;;4.70;;
17959;SDS011;9105;53.552;9.980;2023-07-22T06:37:06;7.90;;;4.88;;
17959;SDS011;9105;53.552;9.980;2023-07-22T06:39:32;8.38;;;4.50;;
17959;SDS011;9105;53.552;9.980;2023-07-22T06:41:57;12.65;;;5.00;;
17959;SDS011;9105;53.552;9.980;2023-07-22T06:44:22;7.00;;;4.10;;
17959;SDS011;9105;53.552;9.980;2023-07-22T06:46:48;4.88;;;3.72;;
17959;SDS011;9105;53.552;9.980;2023-07-22T06:49:13;8.02;;;4.10;;
17959;SDS011;9105;53.552;9.980;2023-07-22T06:51:39;7.95;;;4.13;;
17959;SDS011;9105;53.552;9.980;2023-07-22T06:54:04;6.40;;;4.03;;
17959;SDS011;9105;53.552;9.980;2023-07-22T06:56:31;6.45;;;4.40;;
17959;SDS011;9105;53.552;9.980;2023-07-22T06:58:56;5.95;;;4.07;;
17959;SDS011;9105;53.552;9.980;2023-07-22T07:01:22;7.18;;;3.65;;
17959;SDS011;9105;53.552;9.980;2023-07-22T07:03:47;6.18;;;3.08;;
17959;SDS011;9105;53.552;9.980;2023-07-22T07:06:12;5.95;;;3.00;;
17959;SDS011;9105;53.552;9.980;2023-07-22T07:08:38;6.60;;;3.10;;
17959;SDS011;9105;53.552;9.980;2023-07-22T07:11:03;5.28;;;3.33;;
17959;SDS011;9105;53.552;9.980;2023-07-22T07:13:29;5.95;;;2.92;;
17959;SDS011;9105;53.552;9.980;2023-07-22T07:15:54;5.65;;;3.08;;
17959;SDS011;9105;53.552;9.980;2023-07-22T07:18:20;4.20;;;2.30;;
17959;SDS011;9105;53.552;9.980;2023-07-22T07:20:45;6.32;;;2.60;;
17959;SDS011;9105;53.552;9.980;2023-07-22T07:23:12;4.47;;;2.38;;
17959;SDS011;9105;53.552;9.980;2023-07-22T07:25:38;5.35;;;2.13;;
17959;SDS011;9105;53.552;9.980;2023-07-22T07:28:03;3.35;;;1.98;;
17959;SDS011;9105;53.552;9.980;2023-07-22T07:30:29;4.00;;;2.58;;
17959;SDS011;9105;53.552;9.980;2023-07-22T07:32:54;4.53;;;2.40;;
17959;SDS011;9105;53.552;9.980;2023-07-22T07:35:20;4.20;;;2.50;;
17959;SDS011;9105;53.552;9.980;2023-07-22T07:37:45;4.60;;;2.25;;
17959;SDS011;9105;53.552;9.980;2023-07-22T07:40:11;5.40;;;1.90;;
17959;SDS011;9105;53.552;9.980;2023-07-22T07:42:37;4.10;;;1.95;;
17959;SDS011;9105;53.552;9.980;2023-07-22T07:45:03;3.88;;;1.80;;
17959;SDS011;9105;53.552;9.980;2023-07-22T07:47:29;4.43;;;2.20;;
17959;SDS011;9105;53.552;9.980;2023-07-22T07:49:55;5.72;;;1.83;;
17959;SDS011;9105;53.552;9.980;2023-07-22T07:52:21;4.07;;;2.00;;
17959;SDS011;9105;53.552;9.980;2023-07-22T07:54:47;3.55;;;1.88;;
17959;SDS011;9105;53.552;9.980;2023-07-22T07:57:12;4.55;;;2.30;;
17959;SDS011;9105;53.552;9.980;2023-07-22T07:59:38;4.35;;;2.00;;
17959;SDS011;9105;53.552;9.980;2023-07-22T08:02:03;3.50;;;1.73;;
17959;SDS011;9105;53.552;9.980;2023-07-22T08:04:33;5.93;;;2.03;;
17959;SDS011;9105;53.552;9.980;2023-07-22T08:06:59;5.13;;;2.60;;
17959;SDS011;9105;53.552;9.980;2023-07-22T08:09:24;4.43;;;2.17;;
17959;SDS011;9105;53.552;9.980;2023-07-22T08:11:50;3.97;;;2.08;;
17959;SDS011;9105;53.552;9.980;2023-07-22T08:14:15;4.18;;;2.00;;
17959;SDS011;9105;53.552;9.980;2023-07-22T08:16:42;3.97;;;2.58;;
17959;SDS011;9105;53.552;9.980;2023-07-22T08:19:07;5.97;;;3.00;;
17959;SDS011;9105;53.552;9.980;2023-07-22T08:21:33;4.20;;;2.28;;
17959;SDS011;9105;53.552;9.980;2023-07-22T08:23:58;6.78;;;2.33;;
17959;SDS011;9105;53.552;9.980;2023-07-22T08:26:24;3.60;;;1.80;;
17959;SDS011;9105;53.552;9.980;2023-07-22T08:28:49;4.75;;;1.88;;
17959;SDS011;9105;53.552;9.980;2023-07-22T08:31:15;1.88;;;1.35;;
17959;SDS011;9105;53.552;9.980;2023-07-22T08:33:40;3.33;;;1.70;;
17959;SDS011;9105;53.552;9.980;2023-07-22T08:36:06;4.68;;;1.80;;
17959;SDS011;9105;53.552;9.980;2023-07-22T08:38:31;2.88;;;1.73;;
17959;SDS011;9105;53.552;9.980;2023-07-22T08:40:57;4.50;;;1.75;;
17959;SDS011;9105;53.552;9.980;2023-07-22T08:43:22;4.22;;;1.88;;
17959;SDS011;9105;53.552;9.980;2023-07-22T08:45:49;3.00;;;1.60;;
17959;SDS011;9105;53.552;9.980;2023-07-22T08:48:17;3.67;;;1.90;;
17959;SDS011;9105;53.552;9.980;2023-07-22T08:53:15;2.38;;;1.25;;
17959;SDS011;9105;53.552;9.980;2023-07-22T08:55:41;2.35;;;1.40;;
17959;SDS011;9105;53.552;9.980;2023-07-22T08:58:07;2.63;;;1.33;;
17959;SDS011;9105;53.552;9.980;2023-07-22T09:00:34;2.70;;;1.40;;
17959;SDS011;9105;53.552;9.980;2023-07-22T09:03:00;2.95;;;1.40;;
17959;SDS011;9105;53.552;9.980;2023-07-22T09:05:26;2.05;;;1.40;;
17959;SDS011;9105;53.552;9.980;2023-07-22T09:07:51;2.08;;;1.40;;
17959;SDS011;9105;53.552;9.980;2023-07-22T09:10:17;2.83;;;1.40;;
17959;SDS011;9105;53.552;9.980;2023-07-22T09:12:44;3.83;;;1.50;;
17959;SDS011;9105;53.552;9.980;2023-07-22T09:15:09;2.70;;;1.35;;
17959;SDS011;9105;53.552;9.980;2023-07-22T09:17:38;1.73;;;1.17;;
17959;SDS011;9105;53.552;9.980;2023-07-22T09:20:03;2.30;;;1.40;;
17959;SDS011;9105;53.552;9.980;2023-07-22T09:22:31;3.00;;;1.27;;
17959;SDS011;9105;53.552;9.980;2023-07-22T09:25:16;2.03;;;1.55;;
17959;SDS011;9105;53.552;9.980;2023-07-22T09:27:44;1.42;;;1.00;;
17959;SDS011;9105;53.552;9.980;2023-07-22T09:30:25;3.03;;;1.20;;
17959;SDS011;9105;53.552;9.980;2023-07-22T09:32:53;3.28;;;1.30;;
17959;SDS011;9105;53.552;9.980;2023-07-22T09:35:20;2.92;;;1.30;;
17959;SDS011;9105;53.552;9.980;2023-07-22T09:37:46;1.60;;;1.27;;
17959;SDS011;9105;53.552;9.980;2023-07-22T09:42:48;3.15;;;1.38;;
17959;SDS011;9105;53.552;9.980;2023-07-22T09:45:15;6.20;;;1.50;;
17959;SDS011;9105;53.552;9.980;2023-07-22T09:47:48;3.55;;;1.40;;
17959;SDS011;9105;53.552;9.980;2023-07-22T09:50:16;2.55;;;1.25;;
17959;SDS011;9105;53.552;9.980;2023-07-22T09:52:44;2.92;;;1.35;;
17959;SDS011;9105;53.552;9.980;2023-07-22T09:55:11;2.53;;;1.40;;
17959;SDS011;9105;53.552;9.980;2023-07-22T09:57:38;2.30;;;1.65;;
17959;SDS011;9105;53.552;9.980;2023-07-22T10:00:09;5.07;;;1.30;;
17959;SDS011;9105;53.552;9.980;2023-07-22T10:02:36;2.05;;;1.25;;
17959;SDS011;9105;53.552;9.980;2023-07-22T10:05:03;2.88;;;1.42;;
17959;SDS011;9105;53.552;9.980;2023-07-22T10:07:30;3.00;;;1.30;;
17959;SDS011;9105;53.552;9.980;2023-07-22T10:09:58;1.63;;;1.20;;
17959;SDS011;9105;53.552;9.980;2023-07-22T10:12:23;3.78;;;1.40;;
17959;SDS011;9105;53.552;9.980;2023-07-22T10:14:49;1.80;;;1.40;;
17959;SDS011;9105;53.552;9.980;2023-07-22T10:17:16;5.03;;;1.60;;
17959;SDS011;9105;53.552;9.980;2023-07-22T10:19:42;2.85;;;1.55;;
17959;SDS011;9105;53.552;9.980;2023-07-22T10:22:07;2.15;;;1.40;;
17959;SDS011;9105;53.552;9.980;2023-07-22T10:24:35;3.50;;;1.73;;
17959;SDS011;9105;53.552;9.980;2023-07-22T10:27:01;2.60;;;1.50;;
17959;SDS011;9105;53.552;9.980;2023-07-22T10:29:27;2.03;;;1.40;;
17959;SDS011;9105;53.552;9.980;2023-07-22T10:31:53;2.42;;;1.50;;
17959;SDS011;9105;53.552;9.980;2023-07-22T10:34:23;4.45;;;1.45;;
17959;SDS011;9105;53.552;9.980;2023-07-22T10:36:48;3.10;;;1.70;;
17959;SDS011;9105;53.552;9.980;2023-07-22T10:39:24;2.33;;;1.52;;
17959;SDS011;9105;53.552;9.980;2023-07-22T10:42:00;2.90;;;1.45;;
17959;SDS011;9105;53.552;9.980;2023-07-22T10:44:26;3.42;;;1.70;;
17959;SDS011;9105;53.552;9.980;2023-07-22T10:46:58;3.00;;;1.95;;
17959;SDS011;9105;53.552;9.980;2023-07-22T10:49:24;3.13;;;1.48;;
17959;SDS011;9105;53.552;9.980;2023-07-22T10:51:53;3.75;;;1.88;;
17959;SDS011;9105;53.552;9.980;2023-07-22T10:54:31;3.20;;;1.60;;
17959;SDS011;9105;53.552;9.980;2023-07-22T10:57:22;3.88;;;1.65;;
17959;SDS011;9105;53.552;9.980;2023-07-22T10:59:51;2.90;;;1.75;;
17959;SDS011;9105;53.552;9.980;2023-07-22T11:02:24;2.63;;;1.85;;
17959;SDS011;9105;53.552;9.980;2023-07-22T11:04:50;3.67;;;2.08;;
17959;SDS011;9105;53.552;9.980;2023-07-22T11:07:15;4.07;;;1.88;;
17959;SDS011;9105;53.552;9.980;2023-07-22T11:09:55;3.83;;;1.85;;
17959;SDS011;9105;53.552;9.980;2023-07-22T11:12:20;3.20;;;2.15;;
17959;SDS011;9105;53.552;9.980;2023-07-22T11:14:54;2.28;;;2.00;;
17959;SDS011;9105;53.552;9.980;2023-07-22T11:17:28;2.78;;;1.90;;
17959;SDS011;9105;53.552;9.980;2023-07-22T11:19:58;2.63;;;2.03;;
17959;SDS011;9105;53.552;9.980;2023-07-22T11:22:24;4.97;;;2.15;;
17959;SDS011;9105;53.552;9.980;2023-07-22T11:24:49;2.92;;;2.00;;
17959;SDS011;9105;53.552;9.980;2023-07-22T11:27:15;4.57;;;2.65;;
17959;SDS011;9105;53.552;9.980;2023-07-22T11:29:40;4.40;;;2.47;;
17959;SDS011;9105;53.552;9.980;2023-07-22T11:32:06;4.78;;;2.97;;
17959;SDS011;9105;53.552;9.980;2023-07-22T11:34:33;4.20;;;2.72;;
17959;SDS011;9105;53.552;9.980;2023-07-22T11:36:58;4.35;;;2.42;;
17959;SDS011;9105;53.552;9.980;2023-07-22T11:39:24;5.60;;;3.13;;
17959;SDS011;9105;53.552;9.980;2023-07-22T11:41:51;4.40;;;2.80;;
17959;SDS011;9105;53.552;9.980;2023-07-22T11:44:17;4.38;;;3.13;;
17959;SDS011;9105;53.552;9.980;2023-07-22T11:47:03;5.43;;;3.00;;
17959;SDS011;9105;53.552;9.980;2023-07-22T11:49:31;3.78;;;3.20;;
17959;SDS011;9105;53.552;9.980;2023-07-22T11:51:58;3.88;;;2.92;;
17959;SDS011;9105;53.552;9.980;2023-07-22T11:54:25;5.35;;;3.13;;
17959;SDS011;9105;53.552;9.980;2023-07-22T11:56:52;3.53;;;2.90;;
17959;SDS011;9105;53.552;9.980;2023-07-22T11:59:31;3.72;;;3.08;;
17959;SDS011;9105;53.552;9.980;2023-07-22T12:01:58;4.28;;;3.28;;
17959;SDS011;9105;53.552;9.980;2023-07-22T12:04:25;4.90;;;3.42;;
17959;SDS011;9105;53.552;9.980;2023-07-22T12:06:50;4.75;;;3.63;;
17959;SDS011;9105;53.552;9.980;2023-07-22T12:09:16;5.43;;;3.13;;
17959;SDS011;9105;53.552;9.980;2023-07-22T12:11:44;3.60;;;3.00;;
17959;SDS011;9105;53.552;9.980;2023-07-22T12:14:10;4.35;;;3.22;;
17959;SDS011;9105;53.552;9.980;2023-07-22T12:16:37;4.75;;;3.10;;
17959;SDS011;9105;53.552;9.980;2023-07-22T12:19:04;5.75;;;3.33;;
17959;SDS011;9105;53.552;9.980;2023-07-22T12:21:30;4.97;;;3.33;;
17959;SDS011;9105;53.552;9.980;2023-07-22T12:23:56;5.40;;;3.97;;
17959;SDS011;9105;53.552;9.980;2023-07-22T12:26:22;4.13;;;3.70;;
17959;SDS011;9105;53.552;9.980;2023-07-22T12:28:47;4.10;;;3.70;;
17959;SDS011;9105;53.552;9.980;2023-07-22T12:31:13;6.07;;;3.90;;
17959;SDS011;9105;53.552;9.980;2023-07-22T12:33:38;5.70;;;3.70;;
17959;SDS011;9105;53.552;9.980;2023-07-22T12:36:04;4.65;;;3.92;;
17959;SDS011;9105;53.552;9.980;2023-07-22T12:38:30;6.75;;;3.80;;
17959;SDS011;9105;53.552;9.980;2023-07-22T12:40:56;7.15;;;4.07;;
17959;SDS011;9105;53.552;9.980;2023-07-22T12:43:21;5.45;;;4.25;;
17959;SDS011;9105;53.552;9.980;2023-07-22T12:45:47;5.50;;;4.20;;
17959;SDS011;9105;53.552;9.980;2023-07-22T12:48:12;5.50;;;4.07;;
17959;SDS011;9105;53.552;9.980;2023-07-22T12:50:37;6.20;;;5.00;;
17959;SDS011;9105;53.552;9.980;2023-07-22T12:53:03;5.00;;;4.15;;
17959;SDS011;9105;53.552;9.980;2023-07-22T12:55:28;5.10;;;4.30;;
17959;SDS011;9105;53.552;9.980;2023-07-22T12:57:54;7.90;;;5.07;;
17959;SDS011;9105;53.552;9.980;2023-07-22T13:00:20;6.07;;;4.70;;
17959;SDS011;9105;53.552;9.980;2023-07-22T13:02:46;6.50;;;5.35;;
17959;SDS011;9105;53.552;9.980;2023-07-22T13:05:12;6.63;;;5.13;;
17959;SDS011;9105;53.552;9.980;2023-07-22T13:07:37;6.75;;;5.40;;
17959;SDS011;9105;53.552;9.980;2023-07-22T13:10:03;7.47;;;5.75;;
17959;SDS011;9105;53.552;9.980;2023-07-22T13:12:32;7.35;;;5.28;;
17959;SDS011;9105;53.552;9.980;2023-07-22T13:14:57;8.50;;;5.63;;
17959;SDS011;9105;53.552;9.980;2023-07-22T13:17:23;7.57;;;5.53;;
17959;SDS011;9105;53.552;9.980;2023-07-22T13:19:48;8.85;;;5.82;;
17959;SDS011;9105;53.552;9.980;2023-07-22T13:22:14;7.70;;;5.85;;
17959;SDS011;9105;53.552;9.980;2023-07-22T13:24:39;9.15;;;6.13;;
17959;SDS011;9105;53.552;9.980;2023-07-22T13:27:05;9.18;;;6.10;;
17959;SDS011;9105;53.552;9.980;2023-07-22T13:29:31;9.77;;;5.93;;
17959;SDS011;9105;53.552;9.980;2023-07-22T13:31:57;10.05;;;6.20;;
17959;SDS011;9105;53.552;9.980;2023-07-22T13:34:22;8.95;;;6.03;;
17959;SDS011;9105;53.552;9.980;2023-07-22T13:36:48;7.80;;;5.85;;
17959;SDS011;9105;53.552;9.980;2023-07-22T13:39:13;9.50;;;6.20;;
17959;SDS011;9105;53.552;9.980;2023-07-22T13:41:39;10.52;;;6.22;;
17959;SDS011;9105;53.552;9.980;2023-07-22T13:44:04;8.90;;;6.10;;
17959;SDS011;9105;53.552;9.980;2023-07-22T13:46:30;8.35;;;6.55;;
17959;SDS011;9105;53.552;9.980;2023-07-22T13:48:56;12.10;;;7.78;;
17959;SDS011;9105;53.552;9.980;2023-07-22T13:51:21;9.27;;;7.60;;
17959;SDS011;9105;53.552;9.980;2023-07-22T13:53:47;12.07;;;8.10;;
17959;SDS011;9105;53.552;9.980;2023-07-22T13:56:12;12.48;;;7.70;;
17959;SDS011;9105;53.552;9.980;2023-07-22T13:58:38;9.85;;;7.43;;
17959;SDS011;9105;53.552;9.980;2023-07-22T14:01:03;10.10;;;8.07;;
17959;SDS011;9105;53.552;9.980;2023-07-22T14:03:29;9.27;;;7.03;;
17959;SDS011;9105;53.552;9.980;2023-07-22T14:05:54;12.35;;;8.10;;
17959;SDS011;9105;53.552;9.980;2023-07-22T14:08:19;10.73;;;7.57;;
17959;SDS011;9105;53.552;9.980;2023-07-22T14:10:45;12.32;;;8.30;;
17959;SDS011;9105;53.552;9.980;2023-07-22T14:13:10;9.27;;;7.65;;
17959;SDS011;9105;53.552;9.980;2023-07-22T14:15:36;9.07;;;7.45;;
17959;SDS011;9105;53.552;9.980;2023-07-22T14:18:01;9.45;;;7.03;;
17959;SDS011;9105;53.552;9.980;2023-07-22T14:20:28;9.70;;;7.25;;
17959;SDS011;9105;53.552;9.980;2023-07-22T14:22:55;8.77;;;7.20;;
17959;SDS011;9105;53.552;9.980;2023-07-22T14:25:21;9.98;;;7.22;;
17959;SDS011;9105;53.552;9.980;2023-07-22T14:27:47;11.75;;;7.22;;
17959;SDS011;9105;53.552;9.980;2023-07-22T14:30:12;8.63;;;6.50;;
17959;SDS011;9105;53.552;9.980;2023-07-22T14:32:37;9.85;;;6.57;;
17959;SDS011;9105;53.552;9.980;2023-07-22T14:35:03;8.45;;;6.63;;
17959;SDS011;9105;53.552;9.980;2023-07-22T14:37:29;9.95;;;7.32;;
17959;SDS011;9105;53.552;9.980;2023-07-22T14:39:55;8.70;;;6.80;;
17959;SDS011;9105;53.552;9.980;2023-07-22T14:42:21;8.45;;;6.20;;
17959;SDS011;9105;53.552;9.980;2023-07-22T14:44:46;6.78;;;5.95;;
17959;SDS011;9105;53.552;9.980;2023-07-22T14:47:12;9.95;;;6.55;;
17959;SDS011;9105;53.552;9.980;2023-07-22T14:49:37;8.55;;;5.80;;
17959;SDS011;9105;53.552;9.980;2023-07-22T14:52:04;7.68;;;5.57;;
17959;SDS011;9105;53.552;9.980;2023-07-22T14:54:29;6.45;;;5.22;;
17959;SDS011;9105;53.552;9.980;2023-07-22T14:56:57;7.13;;;4.45;;